createdAt,value
2023-02-28T00:00:15.665Z,79.48
2023-02-28T00:01:17.154Z,79.50
2023-02-28T00:02:19.885Z,79.48
2023-02-28T00:03:22.452Z,79.77
2023-02-28T00:04:24.020Z,79.93
2023-02-28T00:05:28.228Z,79.25
2023-02-28T00:06:29.866Z,78.94
2023-02-28T00:07:32.854Z,78.83
2023-02-28T00:08:34.671Z,78.63
2023-02-28T00:09:37.264Z,78.53
2023-02-28T00:10:39.458Z,77.90
2023-02-28T00:11:42.449Z,78.07
2023-02-28T00:12:45.390Z,77.90
2023-02-28T00:13:49.449Z,78.16
2023-02-28T00:14:51.079Z,78.75
2023-02-28T00:16:02.202Z,78.53
2023-02-28T00:17:03.757Z,78.39
2023-02-28T00:18:07.163Z,78.42
2023-02-28T00:19:09.021Z,77.97
2023-02-28T00:20:14.174Z,77.82
2023-02-28T00:21:16.440Z,77.70
2023-02-28T00:22:20.206Z,77.62
2023-02-28T00:23:21.767Z,77.45
2023-02-28T00:24:24.227Z,77.75
2023-02-28T00:25:26.481Z,77.92
2023-02-28T00:26:29.186Z,77.65
2023-02-28T00:27:30.859Z,77.39
2023-02-28T00:28:34.910Z,77.17
2023-02-28T00:29:36.468Z,77.30
2023-02-28T00:30:38.922Z,77.01
2023-02-28T00:31:40.551Z,76.79
2023-02-28T00:32:43.305Z,76.53
2023-02-28T00:33:44.845Z,76.13
2023-02-28T00:34:47.365Z,76.47
2023-02-28T00:35:49.779Z,76.53
2023-02-28T00:36:52.337Z,76.63
2023-02-28T00:37:53.853Z,76.75
2023-02-28T00:38:56.410Z,76.93
2023-02-28T00:39:58.103Z,76.83
2023-02-28T00:41:05.584Z,77.18
2023-02-28T00:42:08.500Z,77.12
2023-02-28T00:43:11.072Z,76.91
2023-02-28T00:44:14.001Z,76.82
2023-02-28T00:45:16.585Z,76.95
2023-02-28T00:46:18.263Z,76.72
2023-02-28T00:47:20.730Z,76.93
2023-02-28T00:48:22.418Z,76.82
2023-02-28T00:49:25.320Z,77.05
2023-02-28T00:50:27.166Z,76.64
2023-02-28T00:51:30.269Z,76.16
2023-02-28T00:52:32.019Z,76.34
2023-02-28T00:53:34.577Z,77.56
2023-02-28T00:54:36.472Z,78.50
2023-02-28T00:55:38.899Z,78.59
2023-02-28T00:56:40.422Z,78.45
2023-02-28T00:57:42.994Z,79.11
2023-02-28T00:58:44.488Z,78.86
2023-02-28T00:59:48.331Z,78.46
2023-02-28T01:00:50.130Z,78.24
2023-02-28T01:01:53.080Z,78.06
2023-02-28T01:02:55.557Z,79.29
2023-02-28T01:03:57.345Z,80.44
2023-02-28T01:04:59.871Z,80.32
2023-02-28T01:06:02.393Z,81.93
2023-02-28T01:07:04.386Z,82.07
2023-02-28T01:08:07.383Z,82.12
2023-02-28T01:09:09.349Z,81.57
2023-02-28T01:10:12.921Z,80.61
2023-02-28T01:11:17.583Z,79.82
2023-02-28T01:12:20.353Z,79.37
2023-02-28T01:13:24.196Z,78.99
2023-02-28T01:14:26.826Z,79.54
2023-02-28T01:15:32.934Z,79.54
2023-02-28T01:16:34.515Z,79.12
2023-02-28T01:17:37.990Z,78.24
2023-02-28T01:18:41.421Z,77.91
2023-02-28T01:19:44.449Z,77.65
2023-02-28T01:20:47.091Z,77.57
2023-02-28T01:21:49.543Z,77.13
2023-02-28T01:22:51.134Z,76.60
2023-02-28T01:23:53.647Z,76.70
2023-02-28T01:24:55.264Z,76.82
2023-02-28T01:25:57.758Z,76.28
2023-02-28T01:26:59.558Z,76.53
2023-02-28T01:28:02.103Z,76.94
2023-02-28T01:29:04.005Z,78.29
2023-02-28T01:30:07.696Z,78.52
2023-02-28T01:31:11.495Z,78.05
2023-02-28T01:32:14.065Z,77.44
2023-02-28T01:33:16.177Z,77.12
2023-02-28T01:34:20.105Z,76.86
2023-02-28T01:35:21.634Z,77.66
2023-02-28T01:36:26.142Z,77.67
2023-02-28T01:37:28.099Z,77.31
2023-02-28T01:38:31.410Z,77.27
2023-02-28T01:39:32.959Z,76.88
2023-02-28T01:40:35.746Z,76.43
2023-02-28T01:41:37.415Z,75.94
2023-02-28T01:42:40.021Z,75.56
2023-02-28T01:43:56.256Z,75.72
2023-02-28T01:45:23.333Z,75.95
2023-02-28T01:46:26.376Z,75.75
2023-02-28T01:47:33.439Z,75.75
2023-02-28T01:48:38.490Z,75.50
2023-02-28T01:49:41.347Z,75.18
2023-02-28T01:50:46.204Z,74.97
2023-02-28T01:51:52.801Z,75.75
2023-02-28T01:52:57.366Z,75.76
2023-02-28T01:54:03.736Z,75.56
2023-02-28T01:55:07.998Z,75.58
2023-02-28T01:56:12.758Z,75.57
2023-02-28T01:57:17.738Z,75.15
2023-02-28T01:58:20.560Z,75.09
2023-02-28T01:59:27.166Z,75.22
2023-02-28T02:00:31.876Z,75.12
2023-02-28T02:01:35.091Z,74.70
2023-02-28T02:02:38.908Z,74.75
2023-02-28T02:03:40.464Z,75.10
2023-02-28T02:04:52.100Z,74.92
2023-02-28T02:05:53.649Z,75.29
2023-02-28T02:06:57.097Z,74.97
2023-02-28T02:08:04.070Z,75.32
2023-02-28T02:09:07.235Z,75.53
2023-02-28T02:10:15.794Z,75.38
2023-02-28T02:11:20.814Z,75.00
2023-02-28T02:12:34.653Z,75.06
2023-02-28T02:13:56.213Z,74.97
2023-02-28T02:15:06.512Z,74.74
2023-02-28T02:16:22.675Z,74.60
2023-02-28T02:17:33.330Z,74.30
2023-02-28T02:18:42.975Z,75.62
2023-02-28T02:20:09.625Z,76.37
2023-02-28T02:21:46.084Z,76.74
2023-02-28T02:23:10.534Z,77.16
2023-02-28T02:24:58.329Z,76.63
2023-02-28T02:26:12.752Z,78.02
2023-02-28T02:27:43.118Z,77.50
2023-02-28T02:29:31.980Z,77.75
2023-02-28T02:31:02.642Z,77.97
2023-02-28T02:32:26.843Z,77.43
2023-02-28T02:33:55.898Z,76.89
2023-02-28T02:35:08.942Z,76.33
2023-02-28T02:36:19.345Z,77.39
2023-02-28T02:37:32.337Z,78.34
2023-02-28T02:38:40.445Z,78.07
2023-02-28T02:39:51.717Z,77.75
2023-02-28T02:41:00.271Z,77.65
2023-02-28T02:42:06.513Z,78.09
2023-02-28T02:43:15.638Z,77.37
2023-02-28T02:44:23.800Z,76.28
2023-02-28T02:45:31.021Z,75.85
2023-02-28T02:46:35.648Z,75.43
2023-02-28T02:47:41.158Z,75.30
2023-02-28T02:48:45.373Z,75.19
2023-02-28T02:49:51.521Z,75.39
2023-02-28T02:50:57.606Z,75.60
2023-02-28T02:52:05.279Z,75.65
2023-02-28T02:53:09.989Z,75.17
2023-02-28T02:54:17.910Z,74.80
2023-02-28T02:55:23.568Z,74.86
2023-02-28T02:56:30.509Z,74.89
2023-02-28T02:57:37.017Z,75.05
2023-02-28T02:58:44.268Z,75.42
2023-02-28T02:59:45.988Z,75.43
2023-02-28T03:00:54.102Z,75.24
2023-02-28T03:01:59.354Z,75.31
2023-02-28T03:03:03.397Z,75.10
2023-02-28T03:04:19.640Z,75.18
2023-02-28T03:05:25.753Z,75.06
2023-02-28T03:06:28.796Z,74.95
2023-02-28T03:07:31.475Z,75.69
2023-02-28T03:08:37.343Z,77.03
2023-02-28T03:09:39.457Z,77.24
2023-02-28T03:10:44.043Z,76.65
2023-02-28T03:11:45.630Z,76.14
2023-02-28T03:12:58.068Z,75.96
2023-02-28T03:14:24.569Z,75.30
2023-02-28T03:15:33.313Z,74.95
2023-02-28T03:16:44.021Z,74.71
2023-02-28T03:18:03.437Z,74.91
2023-02-28T03:19:30.452Z,74.92
2023-02-28T03:20:44.343Z,75.90
2023-02-28T03:21:56.330Z,76.75
2023-02-28T03:23:09.232Z,76.96
2023-02-28T03:24:15.718Z,76.94
2023-02-28T03:25:23.138Z,76.64
2023-02-28T03:26:28.831Z,76.29
2023-02-28T03:27:34.273Z,75.94
2023-02-28T03:28:46.411Z,75.92
2023-02-28T03:29:56.337Z,76.00
2023-02-28T03:31:03.395Z,75.74
2023-02-28T03:32:15.530Z,75.47
2023-02-28T03:33:24.115Z,75.69
2023-02-28T03:34:30.499Z,75.55
2023-02-28T03:35:36.526Z,75.54
2023-02-28T03:36:44.963Z,75.44
2023-02-28T03:37:52.190Z,75.67
2023-02-28T03:38:58.646Z,75.77
2023-02-28T03:40:07.425Z,75.70
2023-02-28T03:41:15.098Z,75.75
2023-02-28T03:42:21.763Z,75.70
2023-02-28T03:43:28.108Z,76.28
2023-02-28T03:44:36.867Z,76.99
2023-02-28T03:45:40.638Z,77.87
2023-02-28T03:46:50.695Z,77.75
2023-02-28T03:47:56.308Z,79.19
2023-02-28T03:49:04.317Z,79.97
2023-02-28T03:50:11.444Z,79.67
2023-02-28T03:51:19.748Z,79.46
2023-02-28T03:52:28.051Z,79.82
2023-02-28T03:53:36.998Z,80.69
2023-02-28T03:54:43.743Z,81.67
2023-02-28T03:55:49.202Z,81.38
2023-02-28T03:56:57.462Z,81.11
2023-02-28T03:58:06.698Z,80.93
2023-02-28T03:59:15.714Z,80.32
2023-02-28T04:00:21.749Z,80.43
2023-02-28T04:01:30.317Z,79.76
2023-02-28T04:02:32.377Z,79.03
2023-02-28T04:03:34.974Z,78.20
2023-02-28T04:04:36.934Z,77.99
2023-02-28T04:05:51.835Z,77.39
2023-02-28T04:07:01.185Z,77.40
2023-02-28T04:08:08.248Z,77.13
2023-02-28T04:10:16.664Z,77.20
2023-02-28T04:11:23.271Z,77.61
2023-02-28T04:12:25.903Z,77.76
2023-02-28T04:13:27.381Z,77.68
2023-02-28T04:14:29.828Z,77.15
2023-02-28T04:15:31.396Z,77.36
2023-02-28T04:16:36.172Z,77.17
2023-02-28T04:17:38.181Z,77.56
2023-02-28T04:18:40.897Z,77.10
2023-02-28T04:19:42.445Z,76.94
2023-02-28T04:20:44.894Z,76.36
2023-02-28T04:21:50.009Z,76.07
2023-02-28T04:22:51.792Z,75.57
2023-02-28T04:23:54.642Z,75.81
2023-02-28T04:24:57.479Z,76.27
2023-02-28T04:26:00.074Z,76.68
2023-02-28T04:27:01.715Z,75.93
2023-02-28T04:28:05.043Z,77.01
2023-02-28T04:29:08.214Z,77.41
2023-02-28T04:30:12.179Z,78.11
2023-02-28T04:31:13.797Z,78.14
2023-02-28T04:32:16.486Z,77.89
2023-02-28T04:33:18.025Z,77.15
2023-02-28T04:34:22.085Z,76.48
2023-02-28T04:35:23.679Z,76.67
2023-02-28T04:36:26.816Z,76.71
2023-02-28T04:37:29.851Z,76.11
2023-02-28T04:38:33.700Z,76.63
2023-02-28T04:39:38.397Z,76.60
2023-02-28T04:40:41.283Z,76.77
2023-02-28T04:41:43.988Z,77.92
2023-02-28T04:42:45.530Z,77.96
2023-02-28T04:43:48.228Z,77.40
2023-02-28T04:44:49.767Z,76.50
2023-02-28T04:45:52.286Z,76.22
2023-02-28T04:46:53.855Z,75.86
2023-02-28T04:47:56.348Z,75.45
2023-02-28T04:48:57.901Z,74.89
2023-02-28T04:50:00.387Z,75.07
2023-02-28T04:51:02.469Z,74.74
2023-02-28T04:52:04.990Z,74.70
2023-02-28T04:53:06.506Z,74.52
2023-02-28T04:54:09.699Z,74.36
2023-02-28T04:55:11.349Z,74.03
2023-02-28T04:56:16.804Z,74.44
2023-02-28T04:57:18.328Z,73.98
2023-02-28T04:58:20.780Z,74.55
2023-02-28T04:59:22.324Z,74.35
2023-02-28T05:00:26.108Z,74.26
2023-02-28T05:01:29.887Z,74.08
2023-02-28T05:02:32.640Z,74.13
2023-02-28T05:03:34.171Z,73.49
2023-02-28T05:04:36.760Z,73.70
2023-02-28T05:05:38.832Z,74.09
2023-02-28T05:06:41.327Z,74.09
2023-02-28T05:07:42.869Z,73.65
2023-02-28T05:08:45.679Z,73.52
2023-02-28T05:09:47.316Z,73.35
2023-02-28T05:10:49.812Z,73.46
2023-02-28T05:11:52.904Z,73.26
2023-02-28T05:12:55.662Z,73.03
2023-02-28T05:13:57.470Z,73.38
2023-02-28T05:15:00.024Z,73.85
2023-02-28T05:16:01.539Z,73.94
2023-02-28T05:17:03.966Z,74.52
2023-02-28T05:18:05.552Z,75.51
2023-02-28T05:19:08.086Z,75.66
2023-02-28T05:20:15.566Z,76.22
2023-02-28T05:21:28.702Z,76.04
2023-02-28T05:22:30.517Z,75.84
2023-02-28T05:23:33.431Z,75.53
2023-02-28T05:24:35.008Z,75.43
2023-02-28T05:25:37.694Z,75.47
2023-02-28T05:26:41.584Z,75.45
2023-02-28T05:27:45.768Z,75.18
2023-02-28T05:28:47.287Z,76.20
2023-02-28T05:29:49.738Z,76.64
2023-02-28T05:30:51.292Z,76.20
2023-02-28T05:31:54.049Z,75.65
2023-02-28T05:32:55.600Z,75.14
2023-02-28T05:33:58.186Z,75.08
2023-02-28T05:34:59.665Z,75.37
2023-02-28T05:36:02.564Z,75.40
2023-02-28T05:37:04.232Z,76.03
2023-02-28T05:38:06.734Z,77.12
2023-02-28T05:39:08.412Z,77.01
2023-02-28T05:40:12.343Z,76.39
2023-02-28T05:41:13.865Z,76.08
2023-02-28T05:42:16.369Z,75.71
2023-02-28T05:43:19.205Z,75.81
2023-02-28T05:44:21.661Z,75.35
2023-02-28T05:45:23.237Z,75.37
2023-02-28T05:46:25.705Z,77.61
2023-02-28T05:47:27.278Z,79.23
2023-02-28T05:48:29.731Z,80.46
2023-02-28T05:49:31.298Z,80.33
2023-02-28T05:50:33.773Z,80.18
2023-02-28T05:51:37.251Z,81.01
2023-02-28T05:52:39.845Z,81.94
2023-02-28T05:53:41.696Z,82.66
2023-02-28T05:54:44.114Z,82.47
2023-02-28T05:55:45.628Z,81.81
2023-02-28T05:56:48.085Z,80.38
2023-02-28T05:57:49.652Z,79.22
2023-02-28T05:58:53.507Z,78.32
2023-02-28T05:59:55.047Z,77.88
2023-02-28T06:00:57.690Z,78.30
2023-02-28T06:01:59.315Z,77.83
2023-02-28T06:03:03.225Z,77.38
2023-02-28T06:04:06.580Z,77.25
2023-02-28T06:05:13.202Z,77.76
2023-02-28T06:06:14.796Z,77.88
2023-02-28T06:07:18.668Z,77.51
2023-02-28T06:08:20.503Z,76.80
2023-02-28T06:09:22.985Z,76.45
2023-02-28T06:10:25.495Z,76.21
2023-02-28T06:11:28.677Z,75.98
2023-02-28T06:12:31.654Z,76.47
2023-02-28T06:13:33.215Z,77.38
2023-02-28T06:14:37.534Z,76.88
2023-02-28T06:15:39.373Z,76.60
2023-02-28T06:16:42.045Z,76.68
2023-02-28T06:17:44.551Z,76.74
2023-02-28T06:18:46.980Z,76.75
2023-02-28T06:19:49.162Z,76.61
2023-02-28T06:20:55.525Z,76.84
2023-02-28T06:21:57.950Z,76.35
2023-02-28T06:23:01.181Z,77.13
2023-02-28T06:24:05.008Z,76.66
2023-02-28T06:25:07.981Z,76.66
2023-02-28T06:26:10.609Z,75.87
2023-02-28T06:27:12.127Z,75.66
2023-02-28T06:28:14.935Z,75.92
2023-02-28T06:29:18.028Z,77.04
2023-02-28T06:30:25.636Z,77.14
2023-02-28T06:31:27.783Z,76.79
2023-02-28T06:32:30.366Z,76.97
2023-02-28T06:33:31.966Z,77.23
2023-02-28T06:34:35.677Z,77.25
2023-02-28T06:35:37.220Z,77.58
2023-02-28T06:36:39.749Z,78.27
2023-02-28T06:37:41.911Z,79.08
2023-02-28T06:38:45.699Z,80.55
2023-02-28T06:39:47.371Z,80.34
2023-02-28T06:40:55.416Z,80.11
2023-02-28T06:41:58.191Z,80.12
2023-02-28T06:42:59.949Z,79.23
2023-02-28T06:44:02.419Z,78.89
2023-02-28T06:45:10.107Z,78.33
2023-02-28T06:46:15.864Z,79.60
2023-02-28T06:47:17.499Z,79.06
2023-02-28T06:48:20.054Z,79.55
2023-02-28T06:49:22.717Z,80.35
2023-02-28T06:50:24.287Z,79.80
2023-02-28T06:51:28.305Z,79.28
2023-02-28T06:52:29.957Z,78.73
2023-02-28T06:53:32.722Z,78.02
2023-02-28T06:54:35.200Z,77.01
2023-02-28T06:55:38.865Z,76.04
2023-02-28T06:56:41.429Z,75.49
2023-02-28T06:57:42.960Z,75.48
2023-02-28T06:58:48.854Z,74.96
2023-02-28T06:59:50.477Z,74.35
2023-02-28T07:00:53.810Z,74.13
2023-02-28T07:01:56.850Z,73.70
2023-02-28T07:02:59.328Z,72.61
2023-02-28T07:04:01.590Z,73.08
2023-02-28T07:05:04.290Z,73.70
2023-02-28T07:06:06.436Z,74.29
2023-02-28T07:07:08.889Z,74.21
2023-02-28T07:08:10.551Z,74.28
2023-02-28T07:09:13.186Z,75.26
2023-02-28T07:10:19.820Z,75.38
2023-02-28T07:11:24.252Z,75.30
2023-02-28T07:12:25.824Z,75.55
2023-02-28T07:13:28.358Z,75.96
2023-02-28T07:14:30.891Z,75.92
2023-02-28T07:15:32.441Z,75.35
2023-02-28T07:16:35.152Z,75.39
2023-02-28T07:17:38.003Z,74.45
2023-02-28T07:18:40.473Z,73.71
2023-02-28T07:19:42.059Z,73.10
2023-02-28T07:20:44.533Z,74.23
2023-02-28T07:21:47.131Z,75.10
2023-02-28T07:22:56.022Z,74.67
2023-02-28T07:23:58.777Z,74.87
2023-02-28T07:25:00.297Z,74.42
2023-02-28T07:26:03.312Z,74.08
2023-02-28T07:27:04.931Z,75.69
2023-02-28T07:28:07.393Z,76.10
2023-02-28T07:29:09.033Z,76.08
2023-02-28T07:30:13.018Z,75.54
2023-02-28T07:31:15.820Z,74.72
2023-02-28T07:32:18.344Z,75.29
2023-02-28T07:33:21.365Z,75.65
2023-02-28T07:34:24.581Z,74.01
2023-02-28T07:35:26.147Z,73.79
2023-02-28T07:36:28.599Z,74.90
2023-02-28T07:37:32.374Z,74.72
2023-02-28T07:38:36.013Z,74.69
2023-02-28T07:39:37.604Z,74.10
2023-02-28T07:40:40.082Z,74.75
2023-02-28T07:41:44.563Z,74.07
2023-02-28T07:42:47.185Z,73.98
2023-02-28T07:43:50.184Z,73.37
2023-02-28T07:44:54.215Z,72.88
2023-02-28T07:45:56.243Z,72.49
2023-02-28T07:46:58.847Z,73.01
2023-02-28T07:48:01.314Z,73.13
2023-02-28T07:49:04.328Z,73.06
2023-02-28T07:50:07.936Z,74.08
2023-02-28T07:51:09.925Z,74.09
2023-02-28T07:52:12.467Z,74.52
2023-02-28T07:53:14.986Z,74.99
2023-02-28T07:54:16.516Z,74.99
2023-02-28T07:55:19.215Z,75.09
2023-02-28T07:56:20.873Z,73.98
2023-02-28T07:57:23.400Z,74.63
2023-02-28T07:58:26.045Z,74.47
2023-02-28T07:59:30.565Z,74.54
2023-02-28T08:00:34.422Z,74.27
2023-02-28T08:01:36.998Z,73.96
2023-02-28T08:02:45.723Z,73.66
2023-02-28T08:03:48.431Z,73.81
2023-02-28T08:04:51.399Z,73.77
2023-02-28T08:05:54.504Z,72.41
2023-02-28T08:06:57.680Z,72.38
2023-02-28T08:07:59.355Z,72.59
2023-02-28T08:09:01.787Z,72.97
2023-02-28T08:10:03.747Z,73.26
2023-02-28T08:11:06.489Z,72.57
2023-02-28T08:12:09.624Z,72.89
2023-02-28T08:13:11.243Z,72.67
2023-02-28T08:14:13.707Z,72.91
2023-02-28T08:15:16.722Z,73.13
2023-02-28T08:16:22.943Z,73.49
2023-02-28T08:17:25.626Z,73.19
2023-02-28T08:18:28.139Z,73.12
2023-02-28T08:19:30.017Z,72.42
2023-02-28T08:20:35.270Z,72.88
2023-02-28T08:21:37.136Z,73.38
2023-02-28T08:22:39.884Z,72.99
2023-02-28T08:23:42.481Z,71.97
2023-02-28T08:24:44.956Z,71.78
2023-02-28T08:25:54.377Z,71.79
2023-02-28T08:26:57.329Z,71.49
2023-02-28T08:27:58.925Z,71.04
2023-02-28T08:29:01.786Z,71.31
2023-02-28T08:30:04.672Z,71.27
2023-02-28T08:31:20.955Z,71.03
2023-02-28T08:32:29.904Z,71.50
2023-02-28T08:33:32.429Z,71.07
2023-02-28T08:34:35.102Z,71.15
2023-02-28T08:35:38.620Z,71.56
2023-02-28T08:36:41.798Z,71.71
2023-02-28T08:37:44.278Z,71.53
2023-02-28T08:38:46.962Z,70.91
2023-02-28T08:39:49.419Z,70.29
2023-02-28T08:40:57.851Z,68.64
2023-02-28T08:42:07.291Z,69.16
2023-02-28T08:43:09.402Z,69.59
2023-02-28T08:44:11.985Z,70.34
2023-02-28T08:45:15.223Z,70.15
2023-02-28T08:46:16.895Z,69.01
2023-02-28T08:47:19.617Z,68.88
2023-02-28T08:48:22.117Z,68.85
2023-02-28T08:49:24.605Z,68.92
2023-02-28T08:50:26.175Z,68.58
2023-02-28T08:51:31.021Z,67.79
2023-02-28T08:52:33.731Z,67.86
2023-02-28T08:53:36.211Z,68.08
2023-02-28T08:54:38.706Z,67.97
2023-02-28T08:55:41.195Z,67.53
2023-02-28T08:56:43.658Z,67.37
2023-02-28T08:57:45.154Z,66.77
2023-02-28T08:58:48.766Z,67.00
2023-02-28T08:59:52.437Z,67.05
2023-02-28T09:00:54.578Z,66.90
2023-02-28T09:01:57.631Z,66.60
2023-02-28T09:02:59.230Z,66.97
2023-02-28T09:04:02.703Z,66.36
2023-02-28T09:05:06.176Z,65.58
2023-02-28T09:06:08.814Z,66.39
2023-02-28T09:07:12.826Z,65.73
2023-02-28T09:08:16.141Z,65.39
2023-02-28T09:09:29.746Z,65.18
2023-02-28T09:10:31.321Z,63.97
2023-02-28T09:11:34.597Z,65.22
2023-02-28T09:12:36.625Z,65.42
2023-02-28T09:13:39.963Z,65.52
2023-02-28T09:14:42.742Z,65.23
2023-02-28T09:15:44.321Z,65.21
2023-02-28T09:16:47.332Z,65.54
2023-02-28T09:17:49.976Z,64.90
2023-02-28T09:18:51.506Z,65.05
2023-02-28T09:19:53.949Z,64.82
2023-02-28T09:20:56.472Z,64.44
2023-02-28T09:21:58.903Z,64.17
2023-02-28T09:23:01.747Z,64.49
2023-02-28T09:24:04.698Z,63.94
2023-02-28T09:25:06.677Z,63.29
2023-02-28T09:26:10.696Z,63.19
2023-02-28T09:27:13.163Z,63.13
2023-02-28T09:28:16.865Z,63.37
2023-02-28T09:29:19.334Z,62.24
2023-02-28T09:30:21.851Z,62.69
2023-02-28T09:31:25.758Z,62.50
2023-02-28T09:32:28.311Z,62.66
2023-02-28T09:33:30.051Z,62.01
2023-02-28T09:34:32.760Z,62.48
2023-02-28T09:35:34.513Z,62.12
2023-02-28T09:36:45.315Z,61.23
2023-02-28T09:37:49.466Z,61.41
2023-02-28T09:38:54.040Z,59.85
2023-02-28T09:39:56.702Z,60.21
2023-02-28T09:41:01.585Z,61.10
2023-02-28T09:42:05.840Z,60.41
2023-02-28T09:43:14.654Z,60.08
2023-02-28T09:44:23.216Z,59.80
2023-02-28T09:45:29.711Z,60.56
2023-02-28T09:46:37.270Z,59.57
2023-02-28T09:47:42.520Z,58.48
2023-02-28T09:48:49.214Z,59.30
2023-02-28T09:49:52.335Z,59.26
2023-02-28T09:51:01.159Z,59.45
2023-02-28T09:52:06.335Z,60.38
2023-02-28T09:53:18.214Z,59.67
2023-02-28T09:54:26.374Z,59.81
2023-02-28T09:55:35.316Z,59.77
2023-02-28T09:56:44.551Z,59.95
2023-02-28T09:57:48.112Z,59.90
2023-02-28T09:58:54.463Z,59.52
2023-02-28T10:00:09.466Z,59.46
2023-02-28T10:01:20.710Z,60.31
2023-02-28T10:02:46.520Z,60.58
2023-02-28T10:03:58.922Z,61.06
2023-02-28T10:05:06.771Z,60.65
2023-02-28T10:06:16.458Z,60.70
2023-02-28T10:07:37.033Z,60.75
2023-02-28T10:08:46.136Z,60.76
2023-02-28T10:09:54.342Z,61.81
2023-02-28T10:10:59.658Z,62.11
2023-02-28T10:12:04.816Z,62.51
2023-02-28T10:13:16.839Z,61.47
2023-02-28T10:14:21.373Z,62.12
2023-02-28T10:15:27.260Z,62.00
2023-02-28T10:16:35.290Z,62.11
2023-02-28T10:17:54.767Z,61.55
2023-02-28T10:19:01.768Z,61.79
2023-02-28T10:20:12.026Z,59.94
2023-02-28T10:21:21.942Z,59.71
2023-02-28T10:22:28.409Z,59.93
2023-02-28T10:23:35.879Z,60.98
2023-02-28T10:24:42.770Z,60.44
2023-02-28T10:25:55.219Z,59.53
2023-02-28T10:27:02.302Z,59.41
2023-02-28T10:28:12.256Z,59.37
2023-02-28T10:29:15.159Z,59.56
2023-02-28T10:30:16.986Z,59.45
2023-02-28T10:31:21.397Z,59.96
2023-02-28T10:32:29.173Z,59.64
2023-02-28T10:33:35.175Z,58.24
2023-02-28T10:34:38.039Z,58.53
2023-02-28T10:35:39.573Z,58.57
2023-02-28T10:36:49.897Z,58.35
2023-02-28T10:37:55.409Z,59.24
2023-02-28T10:38:58.049Z,58.91
2023-02-28T10:39:59.750Z,58.90
2023-02-28T10:41:09.775Z,59.63
2023-02-28T10:42:27.016Z,59.33
2023-02-28T10:43:29.063Z,59.03
2023-02-28T10:44:31.760Z,58.81
2023-02-28T10:45:36.037Z,58.83
2023-02-28T10:46:38.619Z,58.94
2023-02-28T10:47:53.987Z,58.63
2023-02-28T10:49:05.085Z,57.63
2023-02-28T10:50:07.297Z,58.44
2023-02-28T10:51:12.339Z,57.91
2023-02-28T10:52:15.238Z,58.24
2023-02-28T10:54:00.539Z,55.99
2023-02-28T10:55:21.799Z,53.21
2023-02-28T10:56:26.676Z,51.22
2023-02-28T10:57:31.787Z,50.09
2023-02-28T10:58:49.820Z,50.61
2023-02-28T10:59:55.909Z,51.32
2023-02-28T11:00:58.368Z,53.39
2023-02-28T11:02:01.038Z,52.23
2023-02-28T11:03:02.821Z,53.59
2023-02-28T11:04:05.697Z,53.35
2023-02-28T11:05:26.485Z,53.82
2023-02-28T11:06:32.676Z,52.08
2023-02-28T11:07:50.500Z,52.04
2023-02-28T11:08:56.965Z,51.82
2023-02-28T11:09:59.667Z,50.45
2023-02-28T11:11:06.975Z,49.70
2023-02-28T11:12:23.587Z,48.44
2023-02-28T11:13:28.857Z,46.83
2023-02-28T11:14:35.218Z,46.54
2023-02-28T11:15:37.851Z,46.40
2023-02-28T11:16:40.545Z,45.57
2023-02-28T11:17:45.007Z,45.85
2023-02-28T11:18:50.938Z,46.81
2023-02-28T11:19:58.016Z,47.22
2023-02-28T11:21:03.733Z,46.82
2023-02-28T11:22:10.292Z,48.82
2023-02-28T11:23:14.679Z,48.43
2023-02-28T11:24:24.994Z,48.44
2023-02-28T11:25:32.051Z,47.11
2023-02-28T11:26:40.316Z,47.28
2023-02-28T11:27:49.379Z,46.36
2023-02-28T11:29:10.945Z,47.08
2023-02-28T11:30:33.786Z,46.90
2023-02-28T11:31:36.430Z,44.84
2023-02-28T11:32:38.726Z,44.80
2023-02-28T11:33:45.874Z,44.36
2023-02-28T11:35:01.932Z,43.42
2023-02-28T11:36:10.936Z,43.73
2023-02-28T11:37:16.713Z,44.45
2023-02-28T11:38:18.581Z,45.07
2023-02-28T11:39:21.576Z,46.51
2023-02-28T11:40:32.103Z,48.59
2023-02-28T11:41:59.976Z,49.65
2023-02-28T11:43:14.900Z,49.95
2023-02-28T11:44:37.216Z,48.09
2023-02-28T11:45:50.543Z,46.98
2023-02-28T11:46:56.559Z,47.60
2023-02-28T11:48:07.248Z,48.42
2023-02-28T11:49:32.092Z,47.91
2023-02-28T11:50:48.738Z,46.60
2023-02-28T11:51:57.896Z,49.10
2023-02-28T11:53:03.155Z,48.00
2023-02-28T11:54:32.756Z,45.75
2023-02-28T11:55:38.564Z,45.43
2023-02-28T11:56:45.713Z,44.32
2023-02-28T11:58:02.616Z,42.96
2023-02-28T11:59:29.772Z,43.84
2023-02-28T12:00:42.455Z,44.62
2023-02-28T12:02:04.822Z,48.60
2023-02-28T12:03:21.065Z,50.13
2023-02-28T12:04:32.806Z,51.54
2023-02-28T12:05:44.934Z,51.29
2023-02-28T12:06:54.500Z,50.05
2023-02-28T12:08:04.636Z,49.92
2023-02-28T12:09:22.572Z,49.42
2023-02-28T12:10:28.296Z,47.92
2023-02-28T12:11:42.816Z,47.24
2023-02-28T12:12:52.451Z,45.99
2023-02-28T12:14:05.632Z,45.55
2023-02-28T12:15:26.217Z,45.61
2023-02-28T12:16:38.771Z,44.86
2023-02-28T12:17:53.140Z,48.88
2023-02-28T12:19:08.699Z,50.75
2023-02-28T12:20:20.591Z,51.33
2023-02-28T12:21:32.447Z,50.70
2023-02-28T12:22:39.982Z,50.35
2023-02-28T12:23:57.962Z,49.82
2023-02-28T12:25:23.219Z,48.90
2023-02-28T12:26:34.057Z,49.15
2023-02-28T12:27:38.101Z,47.69
2023-02-28T12:28:47.401Z,48.21
2023-02-28T12:29:53.219Z,49.01
2023-02-28T12:31:02.324Z,50.97
2023-02-28T12:32:08.956Z,50.44
2023-02-28T12:33:16.388Z,48.99
2023-02-28T12:34:21.578Z,47.12
2023-02-28T12:35:28.008Z,47.22
2023-02-28T12:36:31.230Z,46.45
2023-02-28T12:37:39.364Z,47.07
2023-02-28T12:38:44.490Z,48.84
2023-02-28T12:39:51.175Z,47.20
2023-02-28T12:40:56.186Z,46.61
2023-02-28T12:42:04.244Z,45.78
2023-02-28T12:43:10.375Z,45.14
2023-02-28T12:44:19.457Z,44.82
2023-02-28T12:45:24.580Z,45.45
2023-02-28T12:46:34.818Z,45.41
2023-02-28T12:47:37.861Z,46.90
2023-02-28T12:48:44.430Z,47.25
2023-02-28T12:49:51.281Z,46.07
2023-02-28T12:50:53.015Z,43.88
2023-02-28T12:51:55.851Z,44.04
2023-02-28T12:53:02.039Z,43.42
2023-02-28T12:54:15.994Z,43.53
2023-02-28T12:55:26.176Z,45.00
2023-02-28T12:56:40.494Z,46.57
2023-02-28T12:57:51.062Z,45.72
2023-02-28T12:58:59.158Z,45.25
2023-02-28T13:00:05.293Z,44.07
2023-02-28T13:01:31.976Z,44.98
2023-02-28T13:03:04.644Z,46.12
2023-02-28T13:04:31.805Z,44.71
2023-02-28T13:05:56.704Z,43.38
2023-02-28T13:07:14.472Z,45.16
2023-02-28T13:08:35.431Z,43.77
2023-02-28T13:09:37.979Z,43.95
2023-02-28T13:10:43.765Z,47.48
2023-02-28T13:11:47.680Z,47.42
2023-02-28T13:12:50.956Z,44.89
2023-02-28T13:14:00.968Z,46.64
2023-02-28T13:15:12.375Z,47.68
2023-02-28T13:16:18.067Z,46.20
2023-02-28T13:17:22.139Z,46.47
2023-02-28T13:18:33.970Z,46.02
2023-02-28T13:19:42.609Z,44.40
2023-02-28T13:20:50.594Z,42.49
2023-02-28T13:21:54.048Z,42.16
2023-02-28T13:22:57.742Z,42.39
2023-02-28T13:24:03.205Z,45.20
2023-02-28T13:25:50.543Z,44.22
2023-02-28T13:27:14.367Z,45.83
2023-02-28T13:29:10.974Z,45.86
2023-02-28T13:30:52.545Z,45.54
2023-02-28T13:32:44.326Z,44.66
2023-02-28T13:34:15.238Z,43.73
2023-02-28T13:35:41.924Z,44.30
2023-02-28T13:36:44.647Z,44.84
2023-02-28T13:37:50.846Z,47.09
2023-02-28T13:38:54.998Z,47.73
2023-02-28T13:39:57.541Z,47.56
2023-02-28T13:41:39.489Z,48.82
2023-02-28T13:42:53.583Z,49.63
2023-02-28T13:44:05.051Z,50.68
2023-02-28T13:45:24.734Z,49.93
2023-02-28T13:46:26.422Z,48.48
2023-02-28T13:47:33.502Z,48.35
2023-02-28T13:48:38.772Z,48.92
2023-02-28T13:49:42.163Z,48.53
2023-02-28T13:50:45.166Z,47.56
2023-02-28T13:51:49.638Z,45.91
2023-02-28T13:53:04.667Z,44.89
2023-02-28T13:54:21.299Z,44.70
2023-02-28T13:55:40.710Z,43.66
2023-02-28T13:56:52.041Z,43.24
2023-02-28T13:58:13.679Z,45.67
2023-02-28T13:59:27.209Z,46.55
2023-02-28T14:00:43.696Z,45.61
2023-02-28T14:01:57.292Z,46.13
2023-02-28T14:03:24.986Z,48.18
2023-02-28T14:04:55.434Z,45.51
2023-02-28T14:06:16.708Z,44.89
2023-02-28T14:07:24.646Z,43.95
2023-02-28T14:08:26.387Z,41.89
2023-02-28T14:09:34.220Z,41.73
2023-02-28T14:10:42.390Z,42.92
2023-02-28T14:11:45.425Z,42.99
2023-02-28T14:13:06.414Z,43.09
2023-02-28T14:14:08.989Z,43.10
2023-02-28T14:15:43.967Z,44.04
2023-02-28T14:16:48.931Z,45.27